Latest Weather Observations for Brisbane Airport

IDQ60901

Issued at 12:31 am EST Monday 26 October 2020 (issued every 10 minutes, with the page automatically refreshed every 10 minutes)

About weather observations | Map of Brisbane area stations | Latest observations for Brisbane area | Other Formats
Station Details ID: 040842 Name: BRISBANE AERO Lat: -27.39 Lon: 153.13 Height: 4.51 m
Data from the previous 72 hours. | See also: Recent months at Brisbane Airport
Date/Time
EST
Temp
°C
App
Temp
°C
Dew
Point
°C
Rel
Hum
%
Delta-T
°C
Wind Press
QNH
hPa
Press
MSL
hPa
Rain since
9am
mm
Dir  Spd
km/h
Gust
km/h
Spd
kts
Gust
kts
26/12:00am 22.1 23.6 20.6 91 1.0 N 13 19 7 10 1010.8 1010.8 31.4
 
Date/Time
EST
Temp
°C
App
Temp
°C
Dew
Point
°C
Rel
Hum
%
Delta-T
°C
Wind Press
QNH
hPa
Press
MSL
hPa
Rain since
9am
mm
Dir  Spd
km/h
Gust
km/h
Spd
kts
Gust
kts
25/11:30pm 22.0 22.8 20.6 92 0.9 N 17 20 9 11 1011.0 1011.0 31.4
25/11:00pm 21.8 22.2 19.9 89 1.2 N 17 19 9 10 1010.7 1010.7 31.4
25/10:30pm 22.2 22.3 19.9 87 1.5 N 19 22 10 12 1010.6 1010.6 31.4
25/10:00pm 22.0 21.8 19.8 87 1.4 N 20 26 11 14 1010.6 1010.6 31.4
25/09:30pm 21.9 22.2 19.5 86 1.5 N 17 22 9 12 1010.7 1010.7 31.4
25/09:00pm 21.8 22.2 19.9 89 1.2 N 17 22 9 12 1010.5 1010.5 31.4
25/08:30pm 22.2 21.8 19.4 84 1.8 NNE 20 24 11 13 1010.6 1010.6 31.4
25/08:00pm 22.4 22.9 19.3 82 2.0 NNE 15 22 8 12 1010.6 1010.6 31.4
25/07:30pm 22.4 23.2 19.9 86 1.6 NE 15 20 8 11 1010.4 1010.4 31.4
25/07:00pm 22.4 23.4 20.2 87 1.4 NE 15 20 8 11 1010.3 1010.3 31.4
25/06:30pm 22.4 22.8 19.9 86 1.6 ENE 17 26 9 14 1010.1 1010.1 31.4
25/06:00pm 22.5 21.5 19.7 84 1.8 NE 24 30 13 16 1009.7 1009.7 31.4
25/05:30pm 22.6 21.8 20.1 86 1.6 NE 24 30 13 16 1009.8 1009.8 31.4
25/05:00pm 22.5 21.4 19.5 83 1.9 NE 24 35 13 19 1009.5 1009.5 31.4
25/04:30pm 22.7 20.5 18.7 78 2.5 NE 28 37 15 20 1008.8 1008.8 31.4
25/04:17pm 22.2 19.7 18.9 81 2.1 NNE 30 48 16 26 1008.6 1008.6 31.4
25/04:00pm 20.8 18.4 19.9 95 0.6 NNE 32 41 17 22 1008.5 1008.5 31.2
25/03:36pm 21.3 19.4 20.1 93 0.8 N 30 52 16 28 1008.1 1008.1 30.2
25/03:30pm 20.4 17.6 19.0 92 0.9 N 32 43 17 23 1008.1 1008.1 30.2
25/03:13pm 19.9 15.9 17.6 86 1.4 WNW 35 61 19 33 1007.5 1007.5 28.6
25/03:12pm 19.8 15.0 17.5 86 1.4 WNW 39 70 21 38 1007.7 1007.7 28.4
25/03:09pm 19.2 12.6 17.2 88 1.2 W 48 91 26 49 1007.7 1007.7 27.4
25/03:01pm 17.2 12.0 16.5 96 0.4 SW 39 91 21 49 1009.1 1009.1 21.2
25/03:00pm 17.1 12.7 16.6 97 0.3 SW 35 70 19 38 1009.2 1009.2 20.4
25/02:52pm 17.6 10.5 16.9 96 0.4 SW 50 93 27 50 1008.2 1008.2 16.0
25/02:47pm 17.1 11.2 17.1 100 0.0 W 44 93 24 50 1007.8 1007.8 10.6
25/02:42pm 19.3 17.4 17.7 90 1.0 NW 24 91 13 49 1009.1 1009.1 2.0
25/02:40pm 21.9 21.7 17.7 77 2.6 ENE 15 56 8 30 1009.5 1009.5 0.2
25/02:37pm 24.0 24.8 19.1 74 3.1 E 13 19 7 10 1008.7 1008.7 0.2
25/02:30pm 24.0 23.2 18.1 69 3.7 ENE 19 30 10 16 1008.6 1008.6 0.2
25/02:00pm 25.0 24.9 21.4 80 2.4 NE 24 33 13 18 1008.4 1008.4 0.2
25/01:30pm 26.9 26.3 22.0 74 3.3 NE 28 37 15 20 1008.5 1008.5 0.2
25/01:00pm 25.8 23.3 20.8 74 3.3 NNE 35 41 19 22 1008.9 1008.9 0.2
25/12:30pm 26.3 25.7 22.6 80 2.5 NE 30 37 16 20 1009.4 1009.4 0.2
25/12:00pm 26.2 25.2 21.2 74 3.3 NE 28 37 15 20 1009.9 1009.9 0.2
25/11:30am 27.1 25.8 21.4 71 3.8 NE 30 37 16 20 1010.2 1010.2 0.2
25/11:00am 26.1 24.7 21.1 74 3.3 NE 30 35 16 19 1010.5 1010.5 0.2
25/10:30am 26.0 24.6 20.5 71 3.6 NE 28 33 15 18 1010.7 1010.7 0.2
25/10:00am 26.3 26.6 20.3 69 3.9 NNE 19 26 10 14 1011.0 1011.0 0.2
25/09:30am 26.3 26.6 20.5 70 3.8 N 19 26 10 14 1011.4 1011.4 0.0
25/09:00am 25.3 25.9 20.2 73 3.3 NNE 17 22 9 12 1011.4 1011.4 22.4
25/08:30am 24.6 25.5 20.8 79 2.5 NNW 17 22 9 12 1011.7 1011.7 22.4
25/08:00am 23.5 23.6 20.4 83 2.0 N 20 26 11 14 1011.6 1011.6 22.4
25/07:30am 23.6 23.9 20.7 84 1.9 N 20 28 11 15 1011.4 1011.4 22.4
25/07:00am 23.2 22.9 20.4 84 1.8 N 22 30 12 16 1011.2 1011.2 22.4
25/06:30am 22.7 23.5 20.7 88 1.3 N 17 24 9 13 1011.0 1011.0 22.4
25/06:00am 20.6 23.0 20.1 97 0.3 NNW 7 11 4 6 1010.9 1010.9 22.4
25/05:30am 19.6 22.9 19.1 97 0.3 CALM 0 0 0 0 1010.6 1010.6 22.4
25/05:00am 19.1 22.2 18.6 97 0.3 CALM 0 0 0 0 1010.4 1010.4 22.4
25/04:30am 18.8 21.8 18.5 98 0.2 CALM 0 0 0 0 1010.1 1010.1 22.4
25/04:00am 19.1 20.8 18.5 96 0.4 WNW 7 7 4 4 1010.0 1010.0 22.4
25/03:30am 19.3 20.8 18.8 97 0.3 SW 9 11 5 6 1009.8 1009.8 22.4
25/03:00am 19.3 22.0 18.7 96 0.4 WSW 2 7 1 4 1009.4 1009.4 22.4
25/02:30am 19.1 21.0 18.6 97 0.3 W 6 7 3 4 1009.3 1009.3 22.4
25/02:00am 19.0 20.7 18.4 96 0.4 WNW 7 9 4 5 1009.6 1009.6 22.4
25/01:30am 19.1 20.4 18.5 96 0.4 W 9 13 5 7 1009.8 1009.8 22.4
25/01:00am 20.0 18.9 18.7 92 0.8 N 22 28 12 15 1009.6 1009.6 22.4
25/12:30am 21.0 19.6 19.7 92 0.8 N 26 32 14 17 1009.8 1009.8 22.4
25/12:00am 21.2 20.2 19.6 90 1.0 N 24 33 13 18 1010.2 1010.2 22.4
 
Date/Time
EST
Temp
°C
App
Temp
°C
Dew
Point
°C
Rel
Hum
%
Delta-T
°C
Wind Press
QNH
hPa
Press
MSL
hPa
Rain since
9am
mm
Dir  Spd
km/h
Gust
km/h
Spd
kts
Gust
kts
24/11:30pm 21.0 20.5 19.1 89 1.2 N 20 28 11 15 1010.2 1010.2 22.4
24/11:00pm 20.4 19.9 18.6 89 1.1 N 19 24 10 13 1010.3 1010.3 22.4
24/10:30pm 20.6 20.6 19.0 90 1.0 N 17 24 9 13 1010.8 1010.8 22.4
24/10:00pm 20.7 20.5 19.3 92 0.9 N 19 26 10 14 1010.9 1010.9 22.4
24/09:30pm 20.7 20.5 19.4 92 0.8 N 19 26 10 14 1011.2 1011.2 22.4
24/09:00pm 20.6 20.2 19.3 92 0.8 N 20 28 11 15 1010.9 1010.9 22.4
24/08:30pm 20.8 21.2 19.1 90 1.1 N 15 19 8 10 1010.8 1010.8 22.4
24/08:00pm 20.5 21.4 19.2 92 0.8 N 13 17 7 9 1010.7 1010.7 22.4
24/07:30pm 20.6 21.0 19.0 90 1.0 NE 15 19 8 10 1010.3 1010.3 22.4
24/07:00pm 20.5 20.7 19.4 93 0.7 NE 17 26 9 14 1010.6 1010.6 22.4
24/06:30pm 20.5 20.0 19.2 92 0.8 NNE 20 30 11 16 1011.0 1011.0 22.4
24/06:00pm 20.3 21.4 19.7 96 0.4 N 13 15 7 8 1010.9 1010.9 22.2
24/05:30pm 20.5 21.8 20.2 98 0.2 NE 13 15 7 8 1011.1 1011.1 22.0
24/05:00pm 20.5 23.6 20.2 98 0.2 ENE 4 13 2 7 1011.0 1011.0 21.0
24/04:30pm 20.4 22.8 20.1 98 0.2 NE 7 9 4 5 1010.9 1010.9 20.2
24/04:07pm 20.3 23.3 20.0 98 0.2 WSW 4 7 2 4 1010.7 1010.7 19.0
24/04:00pm 20.4 23.0 20.1 98 0.2 NNW 6 7 3 4 1010.7 1010.7 18.4
24/03:42pm 20.2 22.6 20.0 99 0.1 NE 7 9 4 5 1010.8 1010.8 17.2
24/03:30pm 20.2 22.7 19.9 98 0.2 E 6 13 3 7 1010.9 1010.9 16.4
24/03:20pm 20.3 20.8 20.0 98 0.2 SW 17 24 9 13 1010.4 1010.4 15.0
24/03:00pm 21.3 19.9 20.5 95 0.5 N 28 37 15 20 1010.4 1010.4 5.6
24/02:52pm 22.6 21.0 20.8 89 1.2 NNE 30 39 16 21 1010.1 1010.1 1.0
24/02:48pm 23.0 20.8 20.4 85 1.7 NNE 32 39 17 21 1009.9 1009.9 0.2
24/02:30pm 23.5 22.2 20.6 84 1.9 NNE 28 35 15 19 1009.8 1009.8 0.2
24/02:00pm 23.5 22.1 21.2 87 1.5 NNE 30 37 16 20 1010.2 1010.2 0.2
24/01:30pm 22.7 21.7 21.3 92 0.9 NNE 28 39 15 21 1010.8 1010.8 0.0
24/01:00pm 24.5 22.0 20.2 77 2.8 NNE 33 44 18 24 1011.2 1011.2 0.0
24/12:30pm 24.6 22.1 20.1 76 2.9 NNE 33 43 18 23 1011.5 1011.5 0.0
24/12:00pm 24.2 21.6 20.0 77 2.7 NNE 33 41 18 22 1011.7 1011.7 0.0
24/11:30am 24.5 22.1 19.9 75 3.0 NNE 32 39 17 21 1012.1 1012.1 0.0
24/11:00am 24.6 22.5 19.8 74 3.1 NNE 30 37 16 20 1012.5 1012.5 0.0
24/10:30am 24.9 22.7 19.6 72 3.4 NNE 30 35 16 19 1012.9 1012.9 0.0
24/10:00am 25.2 23.4 19.6 71 3.6 NNE 28 33 15 18 1013.3 1013.3 0.0
24/09:30am 25.7 24.3 18.8 65 4.4 NNE 24 30 13 16 1013.4 1013.4 0.0
24/09:00am 25.5 23.6 18.6 65 4.4 N 26 32 14 17 1013.6 1013.6 0.0
24/08:30am 25.8 23.8 18.4 63 4.7 N 26 32 14 17 1013.7 1013.7 0.0
24/08:00am 24.4 23.6 19.2 73 3.3 NNE 22 28 12 15 1013.8 1013.8 0.0
24/07:30am 24.0 23.2 18.5 71 3.5 N 20 26 11 14 1013.8 1013.8 0.0
24/07:00am 22.8 22.6 18.5 77 2.7 N 17 20 9 11 1013.9 1013.9 0.0
24/06:30am 22.2 22.0 18.4 79 2.4 N 17 22 9 12 1014.1 1014.1 0.0
24/06:00am 22.1 21.3 18.1 78 2.5 N 19 26 10 14 1013.7 1013.7 0.0
24/05:30am 21.9 21.7 18.4 80 2.2 N 17 22 9 12 1013.3 1013.3 0.0
24/05:00am 22.0 20.8 18.5 80 2.2 N 22 30 12 16 1013.3 1013.3 0.0
24/04:30am 22.1 20.2 18.6 80 2.2 N 26 33 14 18 1013.2 1013.2 0.0
24/04:00am 22.1 20.7 18.8 81 2.1 N 24 33 13 18 1012.6 1012.6 0.0
24/03:30am 22.2 20.0 18.7 80 2.2 N 28 33 15 18 1012.4 1012.4 0.0
24/03:00am 22.0 20.2 18.8 82 2.0 NNE 26 33 14 18 1011.9 1011.9 0.0
24/02:30am 22.1 19.9 18.8 81 2.1 N 28 33 15 18 1012.5 1012.5 0.0
24/02:00am 22.2 21.3 19.0 82 2.0 N 22 30 12 16 1012.7 1012.7 0.0
24/01:30am 22.7 21.3 19.6 82 2.0 N 26 32 14 17 1012.9 1012.9 0.0
24/01:00am 22.5 20.6 19.4 82 2.0 NNE 28 35 15 19 1013.0 1013.0 0.0
24/12:30am 22.6 20.8 19.5 82 2.0 N 28 35 15 19 1013.4 1013.4 0.0
24/12:00am 22.5 20.7 19.5 83 1.9 NNE 28 35 15 19 1013.5 1013.5 0.0
 
Date/Time
EST
Temp
°C
App
Temp
°C
Dew
Point
°C
Rel
Hum
%
Delta-T
°C
Wind Press
QNH
hPa
Press
MSL
hPa
Rain since
9am
mm
Dir  Spd
km/h
Gust
km/h
Spd
kts
Gust
kts
23/11:30pm 22.6 21.4 19.3 81 2.1 N 24 32 13 17 1013.8 1013.8 0.0
23/11:00pm 22.7 22.0 19.4 81 2.1 N 22 33 12 18 1014.1 1014.1 0.0
23/10:30pm 22.6 20.9 19.0 80 2.3 N 26 35 14 19 1014.1 1014.1 0.0
23/10:00pm 22.7 20.6 18.9 79 2.4 N 28 37 15 20 1014.4 1014.4 0.0
23/09:30pm 22.5 20.8 19.0 80 2.2 N 26 35 14 19 1014.2 1014.2 0.0
23/09:00pm 22.6 20.6 19.1 80 2.2 N 28 37 15 20 1014.0 1014.0 0.0
23/08:30pm 22.6 20.4 18.6 78 2.5 NNE 28 35 15 19 1014.0 1014.0 0.0
23/08:00pm 22.6 20.8 18.8 79 2.4 NNE 26 33 14 18 1014.1 1014.1 0.0
23/07:30pm 22.6 21.4 18.5 77 2.6 NNE 22 30 12 16 1014.1 1014.1 0.0
23/07:00pm 22.5 20.8 18.2 76 2.7 NNE 24 32 13 17 1014.0 1014.0 0.0
23/06:30pm 22.6 20.8 17.8 74 3.0 NNE 24 33 13 18 1013.9 1013.9 0.0
23/06:00pm 22.7 20.9 17.9 74 3.0 NNE 24 33 13 18 1013.6 1013.6 0.0
23/05:30pm 23.0 21.4 18.4 75 2.9 NNE 24 32 13 17 1013.2 1013.2 0.0
23/05:00pm 23.3 21.1 18.7 75 2.9 NNE 28 33 15 18 1012.9 1012.9 0.0
23/04:30pm 24.3 23.0 19.0 72 3.4 NE 24 30 13 16 1012.7 1012.7 0.0
23/04:00pm 24.4 22.0 18.2 68 3.9 NNE 28 33 15 18 1012.6 1012.6 0.0
23/03:30pm 24.3 21.8 18.1 68 3.9 NNE 28 32 15 17 1012.8 1012.8 0.0
23/03:00pm 25.8 22.5 14.0 48 7.0 NNE 24 32 13 17 1012.8 1012.8 0.0
23/02:30pm 26.0 23.4 16.8 57 5.7 NNE 26 32 14 17 1013.2 1013.2 0.0
23/02:00pm 26.3 23.4 16.0 53 6.3 NE 26 32 14 17 1013.5 1013.5 0.0
23/01:30pm 25.6 22.6 16.9 58 5.4 NNE 28 33 15 18 1014.0 1014.0 0.0
23/01:00pm 25.8 22.3 16.6 56 5.7 NE 30 35 16 19 1014.1 1014.1 0.0
23/12:30pm 26.3 23.4 16.0 53 6.3 NNE 26 33 14 18 1014.5 1014.5 0.0
23/12:00pm 26.0 23.5 16.2 54 6.0 NNE 24 32 13 17 1015.1 1015.1 0.0
23/11:30am 23.8 22.2 18.4 72 3.4 NNE 24 28 13 15 1015.7 1015.7 0.0
23/11:00am 25.1 24.2 18.3 66 4.3 NNE 20 28 11 15 1015.7 1015.7 0.0
23/10:30am 25.6 24.1 16.7 58 5.5 NNE 20 28 11 15 1015.9 1015.9 0.0
23/10:00am 25.6 24.2 17.1 59 5.3 NNE 20 26 11 14 1016.2 1016.2 0.0
23/09:30am 24.7 24.5 18.4 68 4.0 N 17 22 9 12 1016.2 1016.2 0.0
23/09:00am 24.5 25.1 18.5 69 3.8 NNE 13 19 7 10 1016.2 1016.2 1.4
23/08:30am 23.4 24.5 18.8 75 2.9 NNE 11 13 6 7 1016.4 1016.4 1.4
23/08:00am 22.3 23.9 19.1 82 2.0 N 9 15 5 8 1016.1 1016.1 1.4
23/07:30am 22.6 23.2 18.6 78 2.5 NE 13 17 7 9 1016.2 1016.2 1.4
23/07:00am 22.2 23.5 18.5 79 2.3 NE 9 13 5 7 1015.8 1015.8 1.4
23/06:30am 21.9 23.3 18.6 81 2.1 NE 9 11 5 6 1015.5 1015.5 1.4
23/06:00am 21.0 22.7 18.6 86 1.5 NE 7 11 4 6 1015.3 1015.3 1.4
23/05:30am 20.5 21.9 17.7 84 1.7 ENE 7 7 4 4 1015.0 1015.0 1.4
23/05:00am 20.0 21.7 18.1 89 1.2 E 6 7 3 4 1014.7 1014.7 1.4
23/04:30am 19.9 22.0 18.0 89 1.2 SE 4 7 2 4 1014.5 1014.5 1.4
23/04:00am 19.8 22.5 17.7 88 1.3 CALM 0 0 0 0 1014.6 1014.6 1.4
23/03:30am 19.8 22.2 17.0 84 1.7 CALM 0 7 0 4 1014.6 1014.6 1.4
23/03:00am 19.8 20.7 18.3 91 0.9 NNE 11 15 6 8 1014.8 1014.8 1.2
23/02:30am 20.5 23.1 17.4 82 1.9 CALM 0 6 0 3 1014.4 1014.4 1.0
23/02:00am 20.5 21.5 16.9 80 2.2 W 7 7 4 4 1014.7 1014.7 1.0
23/01:30am 20.8 21.7 16.7 77 2.5 NE 7 7 4 4 1014.9 1014.9 1.0
23/01:00am 20.5 21.6 16.5 78 2.4 NE 6 7 3 4 1015.1 1015.1 1.0

Latest Capital City Observations: Canberra | Sydney | Melbourne | Brisbane | Adelaide | Perth | Hobart | Darwin

Other formats

Comma delimited format used in spreadsheet applications
http://www.bom.gov.au/fwo/IDQ60901/IDQ60901.94578.axf

JavaScript Object Notation format (JSON) in row-major order
http://www.bom.gov.au/fwo/IDQ60901/IDQ60901.94578.json

Data quality

Most of these data are generated automatically and are frequently updated. Quality checks on data are not normally performed. It is possible for incorrect values to appear. Refer to information at About Latest Weather Observations and please check the disclaimer before using these data.